createdAt,value
2018-07-28T00:00:29.771Z,9.20
2018-07-28T00:02:57.012Z,6.33
2018-07-28T00:05:24.300Z,7.57
2018-07-28T00:07:51.544Z,7.43
2018-07-28T00:10:18.777Z,5.70
2018-07-28T00:12:46.040Z,8.03
2018-07-28T00:15:13.284Z,5.63
2018-07-28T00:17:41.648Z,6.43
2018-07-28T00:20:10.401Z,5.03
2018-07-28T00:22:37.699Z,5.10
2018-07-28T00:25:06.072Z,6.40
2018-07-28T00:27:33.420Z,6.57
2018-07-28T00:30:00.668Z,6.70
2018-07-28T00:32:27.917Z,7.17
2018-07-28T00:34:55.171Z,6.50
2018-07-28T00:37:22.405Z,6.17
2018-07-28T00:39:49.602Z,6.27
2018-07-28T00:42:16.804Z,6.50
2018-07-28T00:44:43.980Z,6.57
2018-07-28T00:47:11.172Z,7.70
2018-07-28T00:49:38.428Z,8.40
2018-07-28T00:52:05.684Z,5.47
2018-07-28T00:54:32.901Z,5.70
2018-07-28T00:57:00.113Z,5.80
2018-07-28T00:59:27.336Z,5.20
2018-07-28T01:01:54.856Z,5.20
2018-07-28T01:04:22.102Z,6.30
2018-07-28T01:06:49.243Z,8.50
2018-07-28T01:09:16.485Z,9.87
2018-07-28T01:11:43.644Z,5.70
2018-07-28T01:14:10.839Z,5.10
2018-07-28T01:16:38.025Z,5.50
2018-07-28T01:19:05.320Z,4.27
2018-07-28T01:21:32.510Z,5.93
2018-07-28T01:23:59.704Z,11.33
2018-07-28T01:26:27.052Z,11.13
2018-07-28T01:28:59.987Z,6.03
2018-07-28T01:31:27.373Z,11.10
2018-07-28T01:33:54.607Z,7.90
2018-07-28T01:36:21.835Z,5.07
2018-07-28T01:38:49.065Z,8.70
2018-07-28T01:41:16.247Z,5.50
2018-07-28T01:43:43.464Z,6.43
2018-07-28T01:46:10.668Z,5.30
2018-07-28T01:48:37.944Z,7.67
2018-07-28T01:51:05.203Z,8.23
2018-07-28T01:53:32.428Z,4.97
2018-07-28T01:55:59.672Z,5.27
2018-07-28T01:58:26.876Z,6.43
2018-07-28T02:00:54.168Z,6.20
2018-07-28T02:03:21.380Z,4.87
2018-07-28T02:05:48.575Z,5.30
2018-07-28T02:08:15.829Z,5.50
2018-07-28T02:10:43.027Z,5.10
2018-07-28T02:13:10.228Z,6.93
2018-07-28T02:15:37.419Z,5.37
2018-07-28T02:18:04.620Z,7.30
2018-07-28T02:20:31.888Z,5.57
2018-07-28T02:22:59.074Z,6.90
2018-07-28T02:25:26.274Z,7.03
2018-07-28T02:27:53.541Z,7.37
2018-07-28T02:30:20.748Z,6.83
2018-07-28T02:32:47.985Z,6.60
2018-07-28T02:35:15.179Z,8.60
2018-07-28T02:37:43.000Z,5.60
2018-07-28T02:40:10.229Z,6.47
2018-07-28T02:42:37.413Z,6.67
2018-07-28T02:45:05.297Z,12.63
2018-07-28T02:47:32.512Z,4.27
2018-07-28T02:49:59.733Z,4.67
2018-07-28T02:52:26.965Z,4.90
2018-07-28T02:54:54.188Z,6.43
2018-07-28T02:57:21.425Z,4.57
2018-07-28T02:59:48.623Z,4.47
2018-07-28T03:02:15.854Z,5.23
2018-07-28T03:04:43.077Z,6.30
2018-07-28T03:07:10.361Z,7.40
2018-07-28T03:09:37.555Z,10.70
2018-07-28T03:12:04.985Z,4.83
2018-07-28T03:14:32.216Z,5.80
2018-07-28T03:16:59.391Z,6.23
2018-07-28T03:19:26.595Z,4.63
2018-07-28T03:21:53.872Z,8.30
2018-07-28T03:24:21.141Z,5.97
2018-07-28T03:26:48.336Z,6.70
2018-07-28T03:29:15.624Z,6.03
2018-07-28T03:31:42.820Z,5.30
2018-07-28T03:34:10.070Z,4.73
2018-07-28T03:36:37.296Z,6.47
2018-07-28T03:39:06.910Z,6.37
2018-07-28T03:41:34.185Z,7.37
2018-07-28T03:44:01.346Z,4.60
2018-07-28T03:46:28.615Z,9.87
2018-07-28T03:48:55.857Z,7.73
2018-07-28T03:51:23.048Z,5.90
2018-07-28T03:53:50.228Z,5.80
2018-07-28T03:56:17.437Z,9.50
2018-07-28T03:58:44.684Z,7.53
2018-07-28T04:01:11.907Z,6.93
2018-07-28T04:03:39.098Z,6.43
2018-07-28T04:06:06.921Z,5.67
2018-07-28T04:08:34.091Z,6.67
2018-07-28T04:11:01.429Z,8.67
2018-07-28T04:13:28.676Z,5.53
2018-07-28T04:15:55.863Z,4.87
2018-07-28T04:18:23.120Z,4.93
2018-07-28T04:20:50.340Z,7.17
2018-07-28T04:23:17.580Z,6.30
2018-07-28T04:25:44.723Z,7.97
2018-07-28T04:28:11.961Z,5.47
2018-07-28T04:30:39.144Z,7.20
2018-07-28T04:33:06.441Z,5.27
2018-07-28T04:35:33.700Z,7.20
2018-07-28T04:38:00.907Z,5.00
2018-07-28T04:40:28.120Z,8.33
2018-07-28T04:42:55.384Z,6.20
2018-07-28T04:45:22.620Z,4.87
2018-07-28T04:47:49.832Z,6.40
2018-07-28T04:50:17.066Z,6.20
2018-07-28T04:52:44.290Z,8.27
2018-07-28T04:55:11.474Z,8.03
2018-07-28T04:57:38.744Z,6.10
2018-07-28T05:00:05.952Z,5.67
2018-07-28T05:02:33.179Z,8.63
2018-07-28T05:05:00.378Z,4.97
2018-07-28T05:07:27.643Z,5.03
2018-07-28T05:09:54.835Z,7.17
2018-07-28T05:12:22.256Z,6.77
2018-07-28T05:14:49.439Z,5.23
2018-07-28T05:17:16.648Z,6.20
2018-07-28T05:19:43.884Z,7.10
2018-07-28T05:22:11.081Z,9.47
2018-07-28T05:24:38.316Z,6.07
2018-07-28T05:27:05.784Z,5.13
2018-07-28T05:29:33.040Z,5.70
2018-07-28T05:32:00.322Z,9.40
2018-07-28T05:34:27.551Z,5.13
2018-07-28T05:36:54.771Z,4.53
2018-07-28T05:39:21.993Z,6.70
2018-07-28T05:41:49.243Z,7.60
2018-07-28T05:44:16.469Z,6.77
2018-07-28T05:46:43.700Z,5.93
2018-07-28T05:49:10.920Z,8.43
2018-07-28T05:51:38.171Z,5.70
2018-07-28T05:54:05.408Z,9.50
2018-07-28T05:56:32.712Z,6.13
2018-07-28T05:58:59.970Z,12.50
2018-07-28T06:01:27.302Z,11.40
2018-07-28T06:03:54.550Z,5.60
2018-07-28T06:06:21.772Z,7.27
2018-07-28T06:08:49.036Z,8.37
2018-07-28T06:11:16.274Z,6.17
2018-07-28T06:13:43.987Z,7.60
2018-07-28T06:16:11.283Z,6.40
2018-07-28T06:18:38.483Z,6.27
2018-07-28T06:21:05.765Z,7.37
2018-07-28T06:23:33.017Z,6.37
2018-07-28T06:26:00.335Z,6.23
2018-07-28T06:28:27.520Z,8.27
2018-07-28T06:30:54.764Z,6.07
2018-07-28T06:33:22.044Z,7.50
2018-07-28T06:35:49.233Z,5.60
2018-07-28T06:38:16.494Z,7.10
2018-07-28T06:40:43.699Z,5.77
2018-07-28T06:43:10.864Z,6.87
2018-07-28T06:45:38.037Z,7.70
2018-07-28T06:48:05.246Z,11.83
2018-07-28T06:50:32.474Z,6.37
2018-07-28T06:52:59.695Z,8.40
2018-07-28T06:55:26.900Z,8.97
2018-07-28T06:57:55.605Z,8.00
2018-07-28T07:00:22.861Z,7.03
2018-07-28T07:02:50.220Z,8.30
2018-07-28T07:05:17.488Z,9.10
2018-07-28T07:07:44.696Z,9.20
2018-07-28T07:10:12.098Z,10.00
2018-07-28T07:12:39.499Z,5.93
2018-07-28T07:15:07.128Z,6.80
2018-07-28T07:17:34.452Z,5.90
2018-07-28T07:20:01.712Z,7.87
2018-07-28T07:22:29.002Z,11.00
2018-07-28T07:24:57.462Z,7.97
2018-07-28T07:27:24.796Z,11.30
2018-07-28T07:29:52.136Z,41.23
2018-07-28T07:32:19.439Z,6.10
2018-07-28T07:34:46.816Z,5.33
2018-07-28T07:37:14.932Z,7.87
2018-07-28T07:39:43.039Z,6.17
2018-07-28T07:42:10.266Z,5.27
2018-07-28T07:44:37.496Z,6.00
2018-07-28T07:47:05.053Z,16.27
2018-07-28T07:49:32.260Z,6.23
2018-07-28T07:51:59.508Z,6.80
2018-07-28T07:54:26.752Z,4.77
2018-07-28T07:56:53.907Z,5.40
2018-07-28T07:59:21.156Z,10.03
2018-07-28T08:01:48.404Z,8.20
2018-07-28T08:04:15.708Z,20.70
2018-07-28T08:06:42.957Z,10.97
2018-07-28T08:09:10.194Z,9.40
2018-07-28T08:11:37.349Z,6.70
2018-07-28T08:14:04.772Z,8.88
2018-07-28T08:16:31.988Z,6.47
2018-07-28T08:18:59.336Z,6.17
2018-07-28T08:21:27.296Z,8.33
2018-07-28T08:23:54.547Z,6.67
2018-07-28T08:26:21.756Z,10.00
2018-07-28T08:28:49.042Z,6.70
2018-07-28T08:31:16.344Z,4.90
2018-07-28T08:33:43.573Z,7.10
2018-07-28T08:36:10.847Z,8.70
2018-07-28T08:38:38.107Z,8.07
2018-07-28T08:41:05.431Z,12.90
2018-07-28T08:43:32.696Z,8.00
2018-07-28T08:45:59.908Z,8.53
2018-07-28T08:48:27.134Z,6.03
2018-07-28T08:50:54.429Z,7.30
2018-07-28T08:53:21.697Z,10.60
2018-07-28T08:55:48.955Z,19.53
2018-07-28T08:58:16.292Z,10.38
2018-07-28T09:00:43.571Z,13.30
2018-07-28T09:03:10.786Z,7.30
2018-07-28T09:05:38.059Z,7.03
2018-07-28T09:08:05.387Z,6.00
2018-07-28T09:10:32.697Z,4.80
2018-07-28T09:12:59.896Z,6.57
2018-07-28T09:15:27.224Z,6.97
2018-07-28T09:17:54.532Z,4.90
2018-07-28T09:20:21.692Z,8.73
2018-07-28T09:22:48.900Z,5.10
2018-07-28T09:25:16.128Z,6.07
2018-07-28T09:27:43.488Z,6.03
2018-07-28T09:30:10.793Z,5.93
2018-07-28T09:32:38.005Z,6.63
2018-07-28T09:35:05.284Z,5.80
2018-07-28T09:37:32.505Z,4.93
2018-07-28T09:39:59.661Z,7.13
2018-07-28T09:42:26.936Z,4.30
2018-07-28T09:44:54.178Z,5.63
2018-07-28T09:47:21.424Z,5.93
2018-07-28T09:49:48.676Z,6.13
2018-07-28T09:52:15.956Z,6.03
2018-07-28T09:54:43.204Z,13.77
2018-07-28T09:57:10.480Z,7.33
2018-07-28T09:59:37.760Z,7.07
2018-07-28T10:02:05.020Z,9.50
2018-07-28T10:04:33.308Z,6.37
2018-07-28T10:07:00.574Z,8.17
2018-07-28T10:09:27.793Z,7.67
2018-07-28T10:11:54.972Z,5.77
2018-07-28T10:14:22.172Z,5.73
2018-07-28T10:16:49.452Z,10.40
2018-07-28T10:19:16.731Z,6.80
2018-07-28T10:21:44.182Z,10.20
2018-07-28T10:24:11.410Z,6.97
2018-07-28T10:26:38.668Z,5.87
2018-07-28T10:29:06.107Z,5.23
2018-07-28T10:31:33.344Z,9.47
2018-07-28T10:34:00.641Z,13.30
2018-07-28T10:36:28.102Z,9.10
2018-07-28T10:38:55.241Z,9.80
2018-07-28T10:41:23.249Z,17.50
2018-07-28T10:43:50.462Z,27.37
2018-07-28T10:46:19.298Z,71.27
2018-07-28T10:48:46.745Z,62.60
2018-07-28T10:51:14.004Z,49.07
2018-07-28T10:53:41.201Z,24.10
2018-07-28T10:56:08.509Z,27.00
2018-07-28T10:58:35.675Z,12.10
2018-07-28T11:01:03.128Z,14.43
2018-07-28T11:03:30.344Z,14.80
2018-07-28T11:05:57.625Z,10.63
2018-07-28T11:08:24.775Z,35.63
2018-07-28T11:10:52.027Z,24.30
2018-07-28T11:13:19.282Z,32.13
2018-07-28T11:15:46.512Z,14.97
2018-07-28T11:18:13.697Z,14.97
2018-07-28T11:20:40.928Z,8.30
2018-07-28T11:23:08.182Z,5.43
2018-07-28T11:25:35.460Z,10.33
2018-07-28T11:28:02.708Z,7.10
2018-07-28T11:30:29.943Z,8.00
2018-07-28T11:33:08.761Z,11.37
2018-07-28T11:35:47.641Z,5.13
2018-07-28T11:38:26.929Z,5.90
2018-07-28T11:41:05.837Z,5.03
2018-07-28T11:43:44.840Z,4.30
2018-07-28T11:46:12.136Z,7.20
2018-07-28T11:48:39.769Z,8.97
2018-07-28T11:51:07.050Z,7.53
2018-07-28T11:53:34.403Z,5.80
2018-07-28T11:56:02.171Z,11.90
2018-07-28T11:58:29.404Z,6.83
2018-07-28T12:00:56.705Z,7.00
2018-07-28T12:03:23.969Z,7.90
2018-07-28T12:05:51.187Z,7.43
2018-07-28T12:08:18.500Z,8.23
2018-07-28T12:10:45.774Z,6.10
2018-07-28T12:13:13.031Z,7.30
2018-07-28T12:15:40.365Z,6.70
2018-07-28T12:18:07.754Z,7.60
2018-07-28T12:20:35.000Z,6.20
2018-07-28T12:23:02.304Z,6.13
2018-07-28T12:25:29.675Z,6.73
2018-07-28T12:27:56.896Z,5.20
2018-07-28T12:30:24.100Z,5.90
2018-07-28T12:32:51.288Z,8.73
2018-07-28T12:35:18.579Z,7.70
2018-07-28T12:37:45.928Z,7.20
2018-07-28T12:40:13.216Z,7.73
2018-07-28T12:42:40.464Z,5.40
2018-07-28T12:45:07.706Z,5.90
2018-07-28T12:47:34.949Z,13.33
2018-07-28T12:50:02.190Z,8.73
2018-07-28T12:52:29.404Z,6.13
2018-07-28T12:55:00.041Z,5.70
2018-07-28T12:57:27.308Z,5.27
2018-07-28T12:59:54.512Z,5.13
2018-07-28T13:02:21.830Z,6.00
2018-07-28T13:04:49.028Z,12.13
2018-07-28T13:07:16.218Z,9.77
2018-07-28T13:09:43.446Z,7.13
2018-07-28T13:12:10.698Z,8.73
2018-07-28T13:14:37.893Z,7.50
2018-07-28T13:17:05.159Z,5.73
2018-07-28T13:19:32.340Z,6.43
2018-07-28T13:21:59.668Z,4.97
2018-07-28T13:24:27.019Z,5.97
2018-07-28T13:26:54.251Z,7.20
2018-07-28T13:29:21.469Z,6.00
2018-07-28T13:31:48.639Z,7.80
2018-07-28T13:34:15.877Z,5.37
2018-07-28T13:36:43.206Z,6.00
2018-07-28T13:39:10.376Z,5.63
2018-07-28T13:41:37.652Z,8.77
2018-07-28T13:44:04.980Z,5.83
2018-07-28T13:46:32.220Z,5.60
2018-07-28T13:48:59.416Z,5.37
2018-07-28T13:51:26.687Z,6.20
2018-07-28T13:53:53.965Z,9.10
2018-07-28T13:56:21.263Z,10.23
2018-07-28T13:58:48.481Z,9.17
2018-07-28T14:01:15.719Z,9.50
2018-07-28T14:03:42.924Z,5.63
2018-07-28T14:06:10.361Z,18.87
2018-07-28T14:08:37.537Z,7.00
2018-07-28T14:11:04.976Z,7.87
2018-07-28T14:13:32.412Z,7.13
2018-07-28T14:15:59.606Z,8.60
2018-07-28T14:18:27.013Z,6.23
2018-07-28T14:20:53.984Z,7.00
2018-07-28T14:23:21.192Z,11.03
2018-07-28T14:25:48.440Z,16.93
2018-07-28T14:28:15.667Z,9.67
2018-07-28T14:30:42.929Z,7.50
2018-07-28T14:33:10.100Z,5.93
2018-07-28T14:35:37.454Z,6.80
2018-07-28T14:38:04.692Z,6.77
2018-07-28T14:40:31.866Z,5.40
2018-07-28T14:42:59.073Z,6.50
2018-07-28T14:45:26.281Z,9.30
2018-07-28T14:47:53.456Z,6.40
2018-07-28T14:50:20.740Z,4.30
2018-07-28T14:52:47.949Z,4.47
2018-07-28T14:55:15.174Z,7.10
2018-07-28T14:57:42.446Z,5.67
2018-07-28T15:00:10.504Z,5.20
2018-07-28T15:02:37.735Z,6.07
2018-07-28T15:05:05.281Z,4.73
2018-07-28T15:07:32.563Z,5.40
2018-07-28T15:09:59.741Z,8.87
2018-07-28T15:12:26.988Z,5.47
2018-07-28T15:14:54.184Z,7.33
2018-07-28T15:17:21.471Z,7.43
2018-07-28T15:19:48.672Z,6.03
2018-07-28T15:22:15.889Z,5.73
2018-07-28T15:24:43.141Z,5.93
2018-07-28T15:27:10.369Z,5.33
2018-07-28T15:29:37.556Z,4.90
2018-07-28T15:32:04.914Z,6.03
2018-07-28T15:34:32.113Z,7.93
2018-07-28T15:36:59.321Z,5.03
2018-07-28T15:39:26.550Z,5.60
2018-07-28T15:41:53.808Z,4.13
2018-07-28T15:44:21.010Z,4.50
2018-07-28T15:46:48.184Z,4.43
2018-07-28T15:49:15.505Z,4.20
2018-07-28T15:51:42.724Z,4.97
2018-07-28T15:54:09.867Z,6.73
2018-07-28T15:56:37.140Z,5.07
2018-07-28T15:59:04.373Z,11.67
2018-07-28T16:01:31.623Z,5.10
2018-07-28T16:03:58.875Z,6.33
2018-07-28T16:06:26.120Z,6.57
2018-07-28T16:08:53.382Z,5.77
2018-07-28T16:11:20.628Z,5.83
2018-07-28T16:13:47.883Z,5.33
2018-07-28T16:16:15.060Z,5.80
2018-07-28T16:18:42.288Z,5.23
2018-07-28T16:21:09.544Z,4.93
2018-07-28T16:23:36.844Z,7.23
2018-07-28T16:26:04.378Z,4.50
2018-07-28T16:28:31.569Z,8.47
2018-07-28T16:30:58.793Z,5.50
2018-07-28T16:33:26.032Z,5.70
2018-07-28T16:35:53.450Z,4.10
2018-07-28T16:38:20.757Z,6.20
2018-07-28T16:40:47.948Z,5.60
2018-07-28T16:43:15.257Z,4.53
2018-07-28T16:45:42.547Z,5.47
2018-07-28T16:48:09.796Z,5.97
2018-07-28T16:50:37.034Z,18.10
2018-07-28T16:53:04.224Z,10.17
2018-07-28T16:55:31.544Z,8.43
2018-07-28T16:57:58.719Z,9.37
2018-07-28T17:00:25.928Z,6.50
2018-07-28T17:02:53.126Z,6.17
2018-07-28T17:05:20.272Z,7.13
2018-07-28T17:07:47.480Z,7.43
2018-07-28T17:10:14.801Z,7.57
2018-07-28T17:12:42.020Z,6.73
2018-07-28T17:15:09.915Z,10.03
2018-07-28T17:17:37.443Z,4.57
2018-07-28T17:20:06.436Z,5.50
2018-07-28T17:22:33.817Z,6.97
2018-07-28T17:25:01.234Z,4.37
2018-07-28T17:27:28.465Z,8.47
2018-07-28T17:29:55.773Z,6.90
2018-07-28T17:32:23.180Z,7.80
2018-07-28T17:34:50.348Z,6.30
2018-07-28T17:37:17.563Z,6.57
2018-07-28T17:39:44.872Z,6.30
2018-07-28T17:42:12.104Z,6.17
2018-07-28T17:44:39.388Z,7.17
2018-07-28T17:47:06.793Z,5.13
2018-07-28T17:49:34.007Z,7.57
2018-07-28T17:52:01.280Z,4.63
2018-07-28T17:54:28.512Z,6.40
2018-07-28T17:56:55.713Z,7.20
2018-07-28T17:59:22.895Z,6.33
2018-07-28T18:01:50.221Z,5.57
2018-07-28T18:04:17.447Z,8.20
2018-07-28T18:06:44.767Z,4.47
2018-07-28T18:09:12.095Z,6.10
2018-07-28T18:11:39.368Z,4.83
2018-07-28T18:14:06.745Z,5.27
2018-07-28T18:16:33.964Z,5.27
2018-07-28T18:19:01.312Z,4.77
2018-07-28T18:21:28.712Z,7.20
2018-07-28T18:23:55.948Z,10.00
2018-07-28T18:26:23.088Z,5.13
2018-07-28T18:28:50.304Z,7.17
2018-07-28T18:31:17.712Z,4.80
2018-07-28T18:33:45.001Z,5.00
2018-07-28T18:36:12.259Z,3.70
2018-07-28T18:38:39.469Z,10.03
2018-07-28T18:41:06.660Z,5.57
2018-07-28T18:43:33.896Z,7.10
2018-07-28T18:46:01.039Z,6.83
2018-07-28T18:48:28.241Z,4.17
2018-07-28T18:50:55.448Z,5.13
2018-07-28T18:53:22.687Z,6.40
2018-07-28T18:55:49.880Z,5.40
2018-07-28T18:58:17.152Z,5.20
2018-07-28T19:00:44.348Z,5.40
2018-07-28T19:03:11.509Z,5.80
2018-07-28T19:05:38.800Z,3.90
2018-07-28T19:08:06.092Z,4.97
2018-07-28T19:10:33.241Z,3.77
2018-07-28T19:13:06.058Z,3.97
2018-07-28T19:15:33.284Z,17.03
2018-07-28T19:18:06.272Z,7.03
2018-07-28T19:20:33.424Z,4.53
2018-07-28T19:23:06.201Z,3.10
2018-07-28T19:25:33.416Z,5.00
2018-07-28T19:28:06.339Z,3.93
2018-07-28T19:30:33.610Z,3.80
2018-07-28T19:33:00.812Z,4.50
2018-07-28T19:35:32.619Z,3.60
2018-07-28T19:37:59.788Z,3.70
2018-07-28T19:40:26.948Z,3.10
2018-07-28T19:42:54.194Z,4.63
2018-07-28T19:45:21.292Z,4.20
2018-07-28T19:47:48.624Z,13.53
2018-07-28T19:50:15.896Z,4.70
2018-07-28T19:52:43.163Z,3.57
2018-07-28T19:55:10.400Z,6.63
2018-07-28T19:57:37.632Z,3.67
2018-07-28T20:00:04.965Z,4.33
2018-07-28T20:02:32.280Z,3.80
2018-07-28T20:04:59.498Z,5.30
2018-07-28T20:07:26.727Z,4.23
2018-07-28T20:09:54.051Z,8.60
2018-07-28T20:12:21.301Z,3.60
2018-07-28T20:14:48.518Z,3.67
2018-07-28T20:17:15.717Z,3.73
2018-07-28T20:19:42.927Z,4.27
2018-07-28T20:22:10.123Z,3.43
2018-07-28T20:24:37.394Z,3.57
2018-07-28T20:27:04.609Z,4.13
2018-07-28T20:29:31.760Z,3.63
2018-07-28T20:31:59.001Z,5.23
2018-07-28T20:34:26.200Z,3.87
2018-07-28T20:36:53.364Z,8.60
2018-07-28T20:39:20.580Z,3.60
2018-07-28T20:41:47.826Z,4.17
2018-07-28T20:44:15.036Z,6.00
2018-07-28T20:46:42.356Z,4.37
2018-07-28T20:49:09.472Z,4.40
2018-07-28T20:51:36.692Z,5.80
2018-07-28T20:54:04.023Z,4.20
2018-07-28T20:56:31.223Z,5.70
2018-07-28T20:58:58.435Z,3.43
2018-07-28T21:01:25.651Z,5.63
2018-07-28T21:03:52.977Z,4.93
2018-07-28T21:06:20.145Z,4.70
2018-07-28T21:08:47.328Z,5.77
2018-07-28T21:11:14.548Z,5.30
2018-07-28T21:13:41.723Z,4.03
2018-07-28T21:16:08.929Z,5.50
2018-07-28T21:18:36.271Z,4.47
2018-07-28T21:21:04.036Z,11.03
2018-07-28T21:23:31.254Z,6.63
2018-07-28T21:25:58.468Z,7.20
2018-07-28T21:28:25.692Z,6.20
2018-07-28T21:30:52.961Z,10.97
2018-07-28T21:33:20.140Z,9.80
2018-07-28T21:35:47.323Z,7.27
2018-07-28T21:38:14.495Z,8.93
2018-07-28T21:40:41.680Z,3.40
2018-07-28T21:43:08.900Z,3.93
2018-07-28T21:45:36.096Z,5.23
2018-07-28T21:48:03.352Z,4.63
2018-07-28T21:50:30.520Z,3.80
2018-07-28T21:52:57.691Z,4.73
2018-07-28T21:55:24.921Z,5.13
2018-07-28T21:57:52.180Z,4.57
2018-07-28T22:00:19.466Z,4.37
2018-07-28T22:02:46.708Z,5.43
2018-07-28T22:05:13.928Z,6.67
2018-07-28T22:07:41.212Z,5.20
2018-07-28T22:10:08.518Z,6.33
2018-07-28T22:12:36.808Z,5.80
2018-07-28T22:15:04.494Z,5.97
2018-07-28T22:17:31.888Z,17.20
2018-07-28T22:19:59.582Z,3.97
2018-07-28T22:22:26.921Z,5.83
2018-07-28T22:24:54.334Z,6.27
2018-07-28T22:27:21.595Z,6.00
2018-07-28T22:29:48.863Z,5.60
2018-07-28T22:32:16.089Z,4.37
2018-07-28T22:34:43.326Z,4.67
2018-07-28T22:37:10.620Z,4.10
2018-07-28T22:39:38.652Z,4.90
2018-07-28T22:42:05.968Z,6.20
2018-07-28T22:44:33.184Z,4.20
2018-07-28T22:47:00.380Z,4.10
2018-07-28T22:49:28.425Z,9.47
2018-07-28T22:51:55.693Z,8.67
2018-07-28T22:54:22.884Z,6.73
2018-07-28T22:56:50.658Z,3.60
2018-07-28T22:59:18.189Z,7.43
2018-07-28T23:01:45.455Z,7.80
2018-07-28T23:04:12.811Z,4.83
2018-07-28T23:06:40.560Z,9.63
2018-07-28T23:09:10.528Z,3.93
2018-07-28T23:11:38.076Z,3.20
2018-07-28T23:14:05.908Z,3.63
2018-07-28T23:16:33.144Z,3.97
2018-07-28T23:19:00.344Z,4.40
2018-07-28T23:21:27.553Z,5.70
2018-07-28T23:23:54.786Z,5.90
2018-07-28T23:26:22.129Z,5.03
2018-07-28T23:28:49.291Z,4.73
2018-07-28T23:31:16.584Z,3.60
2018-07-28T23:33:43.796Z,2.77
2018-07-28T23:36:10.976Z,2.80
2018-07-28T23:38:38.229Z,3.03
2018-07-28T23:41:05.653Z,4.47
2018-07-28T23:43:32.828Z,4.97
2018-07-28T23:46:00.016Z,8.60
2018-07-28T23:48:27.236Z,4.30
2018-07-28T23:50:54.401Z,3.00
2018-07-28T23:53:21.602Z,4.00
2018-07-28T23:55:48.836Z,2.43
2018-07-28T23:58:16.036Z,2.83
